地図

経路データ

SID SEASON NUMBER BASIN SUBBASIN NAME ISO_TIME NATURE LAT LON WMO_WIND WMO_PRES WMO_AGENCY TRACK_TYPE DIST2LAND LANDFALL IFLAG USA_AGENCY USA_ATCF_ID USA_LAT USA_LON USA_RECORD USA_STATUS USA_WIND USA_PRES USA_SSHS USA_R34_NE USA_R34_SE USA_R34_SW USA_R34_NW USA_R50_NE USA_R50_SE USA_R50_SW USA_R50_NW USA_R64_NE USA_R64_SE USA_R64_SW USA_R64_NW USA_POCI USA_ROCI USA_RMW USA_EYE TOKYO_LAT TOKYO_LON TOKYO_GRADE TOKYO_WIND TOKYO_PRES TOKYO_R50_DIR TOKYO_R50_LONG TOKYO_R50_SHORT TOKYO_R30_DIR TOKYO_R30_LONG TOKYO_R30_SHORT TOKYO_LAND CMA_LAT CMA_LON CMA_CAT CMA_WIND CMA_PRES HKO_LAT HKO_LON HKO_CAT HKO_WIND HKO_PRES NEWDELHI_LAT NEWDELHI_LON NEWDELHI_GRADE NEWDELHI_WIND NEWDELHI_PRES NEWDELHI_CI NEWDELHI_DP NEWDELHI_POCI REUNION_LAT REUNION_LON REUNION_TYPE REUNION_WIND REUNION_PRES REUNION_TNUM REUNION_CI REUNION_RMW REUNION_R34_NE REUNION_R34_SE REUNION_R34_SW REUNION_R34_NW REUNION_R50_NE REUNION_R50_SE REUNION_R50_SW REUNION_R50_NW REUNION_R64_NE REUNION_R64_SE REUNION_R64_SW REUNION_R64_NW BOM_LAT BOM_LON BOM_TYPE BOM_WIND BOM_PRES BOM_TNUM BOM_CI BOM_RMW BOM_R34_NE BOM_R34_SE BOM_R34_SW BOM_R34_NW BOM_R50_NE BOM_R50_SE BOM_R50_SW BOM_R50_NW BOM_R64_NE BOM_R64_SE BOM_R64_SW BOM_R64_NW BOM_ROCI BOM_POCI BOM_EYE BOM_POS_METHOD BOM_PRES_METHOD NADI_LAT NADI_LON NADI_CAT NADI_WIND NADI_PRES WELLINGTON_LAT WELLINGTON_LON WELLINGTON_WIND WELLINGTON_PRES DS824_LAT DS824_LON DS824_STAGE DS824_WIND DS824_PRES TD9636_LAT TD9636_LON TD9636_STAGE TD9636_WIND TD9636_PRES TD9635_LAT TD9635_LON TD9635_WIND TD9635_PRES TD9635_ROCI NEUMANN_LAT NEUMANN_LON NEUMANN_CLASS NEUMANN_WIND NEUMANN_PRES MLC_LAT MLC_LON MLC_CLASS MLC_WIND MLC_PRES USA_GUST BOM_GUST BOM_GUST_PER REUNION_GUST REUNION_GUST_PER USA_SEAHGT USA_SEARAD_NE USA_SEARAD_SE USA_SEARAD_SW USA_SEARAD_NW STORM_SPEED STORM_DIR
1991329N04181 1991 97 EP CP ZELDA 1991-11-24 18:00:00 NR 3.80000 181.400 main 2041 2041 O_____________ jtwc_wp WP311991 3.80000 -178.600 15 -1 7 305
1991329N04181 1991 97 EP CP ZELDA 1991-11-24 21:00:00 NR 4.01002 181.100 main 2073 2073 P_____________ WP311991 4.01002 -178.900 17 -1 7 304
1991329N04181 1991 97 EP CP ZELDA 1991-11-25 00:00:00 NR 4.20000 180.800 main 2105 2105 O_____________ jtwc_wp WP311991 4.20000 -179.200 20 -1 7 300
1991329N04181 1991 97 EP CP ZELDA 1991-11-25 03:00:00 NR 4.35749 180.500 main 2137 2137 P_____________ WP311991 4.35749 -179.500 20 -1 7 297
1991329N04181 1991 97 EP CP ZELDA 1991-11-25 06:00:00 NR 4.50000 180.200 main 2159 2159 O_____________ jtwc_wp WP311991 4.50000 -179.800 20 -1 7 296
1991329N04181 1991 97 WP MM ZELDA 1991-11-25 09:00:00 NR 4.64998 179.907 main 2182 2182 P_____________ WP311991 4.64998 179.907 20 -1 7 297
1991329N04181 1991 97 WP MM ZELDA 1991-11-25 12:00:00 NR 4.80000 179.600 main 2215 2215 O_____________ jtwc_wp WP311991 4.80000 179.600 20 -1 7 295
1991329N04181 1991 97 WP MM ZELDA 1991-11-25 15:00:00 NR 4.95000 179.250 main 2249 2249 P_____________ WP311991 4.95000 179.250 20 -1 8 293
1991329N04181 1991 97 WP MM ZELDA 1991-11-25 18:00:00 NR 5.10000 178.900 main 2276 2276 O_____________ jtwc_wp WP311991 5.10000 178.900 20 -1 7 295
1991329N04181 1991 97 WP MM ZELDA 1991-11-25 21:00:00 NR 5.25746 178.600 main 2310 2310 P_____________ WP311991 5.25746 178.600 20 -1 7 297
1991329N04181 1991 97 WP MM ZELDA 1991-11-26 00:00:00 NR 5.40000 178.300 main 2334 2334 O_____________ jtwc_wp WP311991 5.40000 178.300 20 -1 7 291
1991329N04181 1991 97 WP MM ZELDA 1991-11-26 03:00:00 NR 5.50749 177.957 main 2359 2359 P_____________ WP311991 5.50749 177.957 20 -1 7 286
1991329N04181 1991 97 WP MM ZELDA 1991-11-26 06:00:00 NR 5.60000 177.600 main 2388 2388 O_____________ jtwc_wp WP311991 5.60000 177.600 20 -1 7 285
1991329N04181 1991 97 WP MM ZELDA 1991-11-26 09:00:00 NR 5.69998 177.250 main 2413 2391 P_____________ WP311991 5.69998 177.250 20 -1 7 286
1991329N04181 1991 97 WP MM ZELDA 1991-11-26 12:00:00 NR 5.80000 176.900 main 2391 2374 O_____________ jtwc_wp WP311991 5.80000 176.900 20 -1 7 286
1991329N04181 1991 97 WP MM ZELDA 1991-11-26 15:00:00 NR 5.89998 176.550 main 2374 2349 P_____________ WP311991 5.89998 176.550 22 -1 7 286
1991329N04181 1991 97 WP MM ZELDA 1991-11-26 18:00:00 NR 6.00000 176.200 main 2349 2333 O_____________ jtwc_wp WP311991 6.00000 176.200 25 -1 7 285
1991329N04181 1991 97 WP MM ZELDA 1991-11-26 21:00:00 NR 6.09249 175.842 main 2326 2310 P_____________ WP311991 6.09249 175.842 25 -1 7 286
1991329N04181 1991 97 WP MM ZELDA 1991-11-27 00:00:00 NR 6.20000 175.500 main 2310 2295 O_____________ jtwc_wp WP311991 6.20000 175.500 25 -1 7 292
1991329N04181 1991 97 WP MM ZELDA 1991-11-27 03:00:00 NR 6.34996 175.200 main 2295 2295 P_____________ WP311991 6.34996 175.200 25 -1 4 298
1991329N04181 1991 97 WP MM ZELDA 1991-11-27 06:00:00 TS 6.40000 175.120 1004 tokyo main 2295 2280 OO____________ jtwc_wp WP311991 6.50000 174.900 25 -1 6.00000 176.000 2 1004 0 0 0 3 287
1991329N04181 1991 97 WP MM ZELDA 1991-11-27 09:00:00 TS 6.45253 174.871 main 2288 2265 PP____________ WP311991 6.60749 174.557 27 -1 6.14260 175.498 2 1004 0 0 6 283
1991329N04181 1991 97 WP MM ZELDA 1991-11-27 12:00:00 TS 6.52857 174.543 1004 tokyo main 2258 2244 OO____________ jtwc_wp WP311991 6.70000 174.200 30 -1 6.30000 175.000 2 1004 0 0 0 7 285
1991329N04181 1991 97 WP MM ZELDA 1991-11-27 15:00:00 TS 6.63869 174.182 main 2244 2232 PP____________ WP311991 6.79246 173.857 30 -1 6.48493 174.507 2 1004 0 0 8 292
1991329N04181 1991 97 WP MM ZELDA 1991-11-27 18:00:00 TS 6.83000 173.800 1004 tokyo main 2232 2213 OOOO__________ jtwc_wp WP311991 6.90000 173.500 30 -1 6.70000 174.000 2 1004 0 0 0 6.90000 174.000 1 23 1000 7.00000 174.000 TD 25 1000 9 293
1991329N04181 1991 97 WP MM ZELDA 1991-11-27 21:00:00 TS 7.00214 173.321 main 2213 2195 PPPP__________ WP311991 7.04996 173.115 32 -1 6.94251 173.443 2 1002 0 0 6.92528 173.310 1 23 1000 7.10261 173.500 TD 27 997 10 290
1991329N04181 1991 97 WP MM ZELDA 1991-11-28 00:00:00 TS 7.17857 172.821 1000 tokyo main 2197 2186 OOOO__________ jtwc_wp WP311991 7.20000 172.700 35 0 7.20000 172.900 2 1000 0 0 0 7.10000 172.700 1 23 1000 7.20000 173.000 TD 30 995 10 292
1991329N04181 1991 97 WP MM ZELDA 1991-11-28 03:00:00 TS 7.39305 172.351 main 2188 2172 PPPP__________ WP311991 7.29995 172.265 37 0 7.47995 172.420 2 1000 0 0 7.49985 172.220 1 26 1000 7.29245 172.500 TD 30 995 10 295
1991329N04181 1991 97 WP MM ZELDA 1991-11-28 06:00:00 TS 7.60000 171.900 1000 tokyo main 2175 2159 OOOO__________ jtwc_wp WP311991 7.40000 171.800 40 0 7.70000 172.000 2 1000 0 0 0 7.90000 171.800 1 29 1000 7.40000 172.000 TD 30 995 9 291
1991329N04181 1991 97 WP MM ZELDA 1991-11-28 09:00:00 TS 7.73116 171.459 main 2159 2139 PPPP__________ WP311991 7.54244 171.315 42 0 7.78729 171.680 2 1000 0 0 8.04497 171.342 1 29 999 7.54994 171.500 TD 30 995 9 284
1991329N04181 1991 97 WP MM ZELDA 1991-11-28 12:00:00 TS 7.82500 171.000 1000 tokyo main 2139 2119 OOOO__________ jtwc_wp WP311991 7.70000 170.800 45 0 7.80000 171.300 2 1000 0 0 0 8.10000 170.900 1 29 998 7.70000 171.000 TD 30 995 10 281
1991329N04181 1991 97 WP MM ZELDA 1991-11-28 15:00:00 TS 7.91420 170.520 main 2119 2102 PPPP__________ WP311991 7.85743 170.265 47 0 7.77757 170.695 2 1000 0 0 8.21448 170.590 1 29 998 7.80732 170.530 TD 30 995 11 280
1991329N04181 1991 97 WP MM ZELDA 1991-11-28 18:00:00 TS 8.00000 169.950 1000 tokyo main 2102 2075 OOOO__________ jtwc_wp WP311991 8.00000 169.700 50 0 7.80000 170.000 2 1000 0 0 0 8.30000 170.100 1 29 998 7.90000 170.000 TD 30 995 13 277
1991329N04181 1991 97 WP MM ZELDA 1991-11-28 21:00:00 TS 8.07746 169.230 main 2070 2046 PPPP__________ WP311991 8.09987 169.122 52 0 7.93156 169.401 2 1000 0 0 8.29340 169.057 1 33 996 7.98498 169.337 TD 35 992 15 278
1991329N04181 1991 97 WP MM ZELDA 1991-11-29 00:00:00 TS 8.20000 168.450 1000 tokyo main 2046 2034 OOOO__________ jtwc_wp WP311991 8.20000 168.500 55 0 8.20000 168.700 2 1000 0 0 0 8.30000 168.000 2 38 995 8.10000 168.600 TS 40 990 15 283
1991329N04181 1991 97 WP MM ZELDA 1991-11-29 03:00:00 TS 8.41541 167.746 40 994 tokyo main 2032 2018 POPP__________ WP311991 8.33491 167.822 57 0 8.60000 167.800 3 40 994 0 9 90 90 0 8.43431 167.505 2 38 992 8.29240 167.858 TS 47 985 14 284
1991329N04181 1991 97 WP MM ZELDA 1991-11-29 06:00:00 TS 8.55000 167.075 45 990 tokyo main 2028 2003 OOOO__________ jtwc_wp WP311991 8.50000 167.100 60 0 8.60000 167.000 3 45 990 0 9 100 100 0 8.60000 167.100 2 38 990 8.50000 167.100 STS 55 980 14 280
1991329N04181 1991 97 WP MM ZELDA 1991-11-29 09:00:00 TS 8.66177 166.339 main 2010 1989 PPPP__________ WP311991 8.69235 166.365 62 0 8.61234 166.240 3 45 990 0 9 100 100 8.69253 166.402 2 38 990 8.64985 166.350 STS 60 975 15 280
1991329N04181 1991 97 WP MM ZELDA 1991-11-29 12:00:00 TS 8.80000 165.575 45 990 tokyo main 1990 1958 OOOO__________ jtwc_wp WP311991 8.90000 165.600 65 1 8.70000 165.500 3 45 990 0 9 100 100 0 8.80000 165.600 2 38 990 8.80000 165.600 T 65 970 16 282
1991329N04181 1991 97 WP MM ZELDA 1991-11-29 15:00:00 TS 8.99366 164.796 main 1958 1930 PPPP__________ WP311991 9.09237 164.807 67 1 8.91994 164.735 3 50 985 0 9 105 105 8.97751 164.785 2 38 990 8.98480 164.857 T 70 965 16 286
1991329N04181 1991 97 WP MM ZELDA 1991-11-29 18:00:00 TS 9.22500 164.025 55 980 tokyo main 1923 1891 OOOO__________ jtwc_wp WP311991 9.30000 164.000 70 1 9.20000 164.000 4 55 980 9 20 20 9 110 110 0 9.20000 164.000 2 38 990 9.20000 164.100 T 75 960 16 287
1991329N04181 1991 97 WP MM ZELDA 1991-11-29 21:00:00 TS 9.45791 163.296 main 1900 1871 PPPP__________ WP311991 9.53487 163.192 70 1 9.43471 163.350 4 55 980 9 20 20 9 110 110 9.42716 163.342 2 43 987 9.43492 163.300 T 70 965 15 289
1991329N04181 1991 97 WP MM ZELDA 1991-11-30 00:00:00 TS 9.72500 162.575 55 980 tokyo main 1871 1848 OOOO__________ jtwc_wp WP311991 9.80000 162.400 70 1 9.70000 162.700 4 55 980 9 20 20 9 110 110 0 9.70000 162.700 3 48 985 9.70000 162.500 T 65 970 16 292
1991329N04181 1991 97 WP MM ZELDA 1991-11-30 03:00:00 TS 10.0273 161.830 main 1844 1833 PPPP__________ WP311991 10.0773 161.635 72 1 10.0274 161.972 4 57 977 9 25 25 9 115 115 10.0274 161.972 3 48 985 9.97728 161.742 T 65 970 16 294
1991329N04181 1991 97 WP MM ZELDA 1991-11-30 06:00:00 TS 10.3750 161.075 60 975 tokyo main 1836 1818 OOOO__________ jtwc_wp WP311991 10.4000 160.900 75 1 10.4000 161.200 4 60 975 9 30 30 9 120 120 0 10.4000 161.200 3 48 985 10.3000 161.000 T 65 970 17 296
1991329N04181 1991 97 WP MM ZELDA 1991-11-30 09:00:00 TS 10.7487 160.305 main 1818 1816 PPPP__________ WP311991 10.7773 160.192 77 1 10.7700 160.392 4 60 975 9 30 30 9 120 120 10.7775 160.392 3 48 985 10.6699 160.242 T 65 970 17 298
1991329N04181 1991 97 WP MM ZELDA 1991-11-30 12:00:00 TS 11.1750 159.550 60 975 tokyo main 1826 1819 OOOO__________ jtwc_wp WP311991 11.2000 159.500 80 1 11.2000 159.600 4 60 975 9 30 30 9 120 120 0 11.2000 159.600 3 48 985 11.1000 159.500 T 65 970 17 302
1991329N04181 1991 97 WP MM ZELDA 1991-11-30 15:00:00 TS 11.6693 158.820 main 1834 1829 PPPP__________ WP311991 11.6425 158.777 80 1 11.7499 158.863 4 60 975 9 30 30 9 120 120 11.6998 158.870 3 53 980 11.5849 158.770 T 65 970 17 306
1991329N04181 1991 97 WP MM ZELDA 1991-11-30 18:00:00 TS 12.1750 158.150 60 975 tokyo main 1854 1849 OOOO__________ jtwc_wp WP311991 12.1000 158.100 80 1 12.3000 158.200 4 60 975 9 30 30 9 120 120 0 12.2000 158.200 3 58 975 12.1000 158.100 T 65 970 16 307
1991329N04181 1991 97 WP MM ZELDA 1991-11-30 21:00:00 TS 12.6124 157.533 main 1863 1863 PPPP__________ WP311991 12.5349 157.497 80 1 12.7074 157.597 4 60 975 9 30 30 9 120 120 12.6000 157.547 3 58 975 12.6074 157.490 T 65 970 14 309
1991329N04181 1991 97 WP MM ZELDA 1991-12-01 00:00:00 TS 13.0500 157.025 60 975 tokyo main 1894 1890 OOOO__________ jtwc_wp WP311991 13.0000 157.000 80 1 13.1000 157.100 4 60 975 9 30 30 9 120 120 0 13.0000 157.000 3 58 975 13.1000 157.000 T 65 970 13 316
1991329N04181 1991 97 WP MM ZELDA 1991-12-01 03:00:00 TS 13.5312 156.612 main 1921 1921 PPPP__________ WP311991 13.5274 156.575 77 1 13.5774 156.675 4 60 975 9 30 30 9 120 120 13.4699 156.568 3 58 975 13.5499 156.632 T 65 970 12 327
1991329N04181 1991 97 WP MM ZELDA 1991-12-01 06:00:00 TS 14.0500 156.350 60 975 tokyo main 1977 1974 OOOO__________ jtwc_wp WP311991 14.1000 156.300 75 1 14.1000 156.400 4 60 975 9 30 30 9 120 120 0 14.0000 156.300 3 58 975 14.0000 156.400 T 65 970 11 340
1991329N04181 1991 97 WP MM ZELDA 1991-12-01 09:00:00 TS 14.6030 156.216 main 2024 2024 PPPP__________ WP311991 14.6999 156.167 75 1 14.6424 156.290 4 60 975 9 30 30 9 120 120 14.5924 156.175 3 58 975 14.4774 156.233 T 65 970 11 354
1991329N04181 1991 97 WP MM ZELDA 1991-12-01 12:00:00 TS 15.1750 156.225 60 975 tokyo main 2088 2088 OOOO__________ jtwc_wp WP311991 15.3000 156.200 75 1 15.2000 156.300 4 60 975 9 30 30 9 120 120 0 15.2000 156.200 3 58 975 15.0000 156.200 T 65 970 12 3
1991329N04181 1991 97 WP MM ZELDA 1991-12-01 15:00:00 TS 15.7430 156.290 main 2145 2145 PPPP__________ WP311991 15.8724 156.340 72 1 15.7498 156.268 4 57 977 9 25 25 9 115 115 15.7574 156.275 3 58 975 15.5924 156.275 T 62 972 12 13
1991329N04181 1991 97 WP MM ZELDA 1991-12-01 18:00:00 TS 16.3000 156.500 55 980 tokyo main 2215 2215 OOOO__________ jtwc_wp WP311991 16.4000 156.600 70 1 16.3000 156.400 4 55 980 9 20 20 9 110 110 0 16.3000 156.500 3 58 975 16.2000 156.500 STS 60 975 12 26
1991329N04181 1991 97 WP MM ZELDA 1991-12-01 21:00:00 TS 16.8456 156.859 main 2281 2281 PPPP__________ WP311991 16.8649 156.905 70 1 16.8726 156.817 4 55 980 9 20 20 9 110 110 16.8724 156.882 3 58 975 16.7724 156.833 STS 57 977 13 38
1991329N04181 1991 97 WP MM ZELDA 1991-12-02 00:00:00 TS 17.3500 157.350 55 980 tokyo main 2361 2351 OOOO__________ jtwc_wp WP311991 17.3000 157.300 70 1 17.4000 157.400 4 55 980 9 20 20 9 110 110 0 17.4000 157.400 3 58 975 17.3000 157.300 STS 55 980 14 46
1991329N04181 1991 97 WP MM ZELDA 1991-12-02 03:00:00 TS 17.7993 157.895 main 2421 2421 PPPP__________ WP311991 17.7575 157.770 70 1 17.8299 157.978 4 52 982 9 9 110 110 17.8299 157.970 3 58 975 17.7800 157.863 STS 52 980 14 52
1991329N04181 1991 97 WP MM ZELDA 1991-12-02 06:00:00 TS 18.2000 158.500 50 985 tokyo main 2484 2484 OOOO__________ jtwc_wp WP311991 18.2000 158.300 70 1 18.2000 158.600 4 50 985 0 9 110 110 0 18.2000 158.600 3 58 975 18.2000 158.500 STS 50 980 14 56
1991329N04181 1991 97 WP MM ZELDA 1991-12-02 09:00:00 TS 18.5773 159.114 main 2549 2549 PPPP__________ WP311991 18.6149 158.843 67 1 18.5648 159.235 4 50 985 0 9 110 110 18.5648 159.235 3 53 980 18.5648 159.143 STS 47 982 14 59
1991329N04181 1991 97 WP MM ZELDA 1991-12-02 12:00:00 TS 18.9250 159.750 50 985 tokyo main 2608 2608 OOOO__________ jtwc_wp WP311991 19.0000 159.400 65 1 18.9000 159.900 4 50 985 0 9 110 110 0 18.9000 159.900 3 48 985 18.9000 159.800 TS 45 985 14 61
1991329N04181 1991 97 WP MM ZELDA 1991-12-02 15:00:00 TS 19.2535 160.395 main 2643 2643 PPPP__________ WP311991 19.3573 159.943 62 0 19.1998 160.593 4 47 987 0 9 110 110 19.1998 160.593 3 48 985 19.2573 160.450 TS 42 987 14 62
1991329N04181 1991 97 WP MM ZELDA 1991-12-02 18:00:00 TS 19.5750 161.050 45 990 tokyo main 2669 2661 OOOO__________ jtwc_wp WP311991 19.7000 160.500 60 0 19.5000 161.300 3 45 990 0 9 110 110 0 19.5000 161.300 3 48 985 19.6000 161.100 TS 40 990 14 62
1991329N04181 1991 97 WP MM ZELDA 1991-12-02 21:00:00 TS 19.9238 161.737 main 2688 2688 PPPP__________ WP311991 20.0574 161.093 57 0 19.8652 162.045 3 45 990 0 9 110 110 19.8652 162.045 3 43 987 19.9074 161.765 TS 37 990 14 61
1991329N04181 1991 97 WP MM ZELDA 1991-12-03 00:00:00 TS 20.2533 162.373 45 990 tokyo main 2709 2709 OOOO__________ jtwc_wp WP311991 20.4000 161.700 55 0 20.2000 162.700 3 45 990 0 9 110 110 0 20.2000 162.700 2 38 990 20.2000 162.400 TS 35 990 12 62
1991329N04181 1991 97 WP MM ZELDA 1991-12-03 03:00:00 TS 20.5058 162.890 main 2731 2731 PPPP__________ WP311991 20.7149 162.308 52 0 20.4221 163.168 3 42 992 0 9 95 95 20.3846 163.153 2 38 992 20.4977 162.970 TS 32 992 10 61
1991329N04181 1991 97 WP MM ZELDA 1991-12-03 06:00:00 TS 20.7385 163.315 40 994 tokyo main 2746 2739 OOOO__________ jtwc_wp WP311991 21.0000 162.900 50 0 20.6000 163.500 3 40 994 0 9 80 80 0 20.6000 163.500 2 38 995 20.8000 163.500 TD 30 995 9 55
1991329N04181 1991 97 WP MM ZELDA 1991-12-03 09:00:00 TS 21.0332 163.696 main 2755 2748 PPP___________ WP311991 21.2649 163.480 47 0 20.7923 163.773 3 37 995 0 9 80 80 21.0422 163.835 2 38 995 TD 9 50
1991329N04181 1991 97 WP MM ZELDA 1991-12-03 12:00:00 TS 21.3333 164.067 35 996 tokyo main 2764 2757 OOO___________ jtwc_wp WP311991 21.5000 164.000 45 0 21.0000 164.000 3 35 996 0 9 80 80 0 21.5000 164.200 2 38 995 9 53
1991329N04181 1991 97 WP MM ZELDA 1991-12-03 15:00:00 TS 21.5768 164.483 main 2774 2774 PPP___________ WP311991 21.7074 164.445 42 0 21.2425 164.250 3 998 0 9 21.7805 164.752 2 33 997 9 57
1991329N04181 1991 97 WP MM ZELDA 1991-12-03 18:00:00 TS 21.8000 164.833 1000 tokyo main 2784 2784 OOO___________ jtwc_wp WP311991 21.9000 164.800 40 0 21.5000 164.500 2 1000 0 0 0 22.0000 165.200 1 29 1000 7 49
1991329N04181 1991 97 WP MM ZELDA 1991-12-03 21:00:00 TS 22.0307 165.053 main 2794 2780 PPP___________ WP311991 22.0924 165.095 37 0 21.7501 164.787 2 1004 0 0 22.2498 165.275 1 29 1000 5 35
1991329N04181 1991 97 WP MM ZELDA 1991-12-04 00:00:00 TS 22.2455 165.164 1008 tokyo main 2788 2768 OOO___________ jtwc_wp WP311991 22.3000 165.300 35 0 22.0000 165.000 2 1008 0 0 0 22.5000 165.200 1 29 1000 5 20
1991329N04181 1991 97 WP MM ZELDA 1991-12-04 03:00:00 TS 22.4670 165.225 main 2768 2754 PPP___________ WP311991 22.5349 165.445 32 -1 22.2574 165.030 2 1008 0 0 22.7501 165.175 1 26 1000 5 11
1991329N04181 1991 97 WP MM ZELDA 1991-12-04 06:00:00 TS 22.6889 165.244 1008 tokyo main 2754 2749 OOO___________ jtwc_wp WP311991 22.8000 165.500 30 -1 22.5000 165.000 2 1008 0 0 0 23.0000 165.200 1 23 1000 4 6
1991329N04181 1991 97 WP MM ZELDA 1991-12-04 09:00:00 TS 22.9037 165.265 main 2749 2727 PP____________ WP311991 23.1000 165.488 30 -1 22.7075 165.042 2 1008 0 0 1 4 357
1991329N04181 1991 97 WP MM ZELDA 1991-12-04 12:00:00 TS 23.1143 165.229 1008 tokyo main 2727 2714 OO____________ jtwc_wp WP311991 23.4000 165.400 30 -1 22.9000 165.100 2 1008 0 0 0 4 349
1991329N04181 1991 97 WP MM ZELDA 1991-12-04 15:00:00 TS 23.2725 165.193 main 2714 2707 PP____________ WP311991 23.6625 165.263 27 -1 23.0775 165.158 2 1008 0 0 3 352
1991329N04181 1991 97 WP MM ZELDA 1991-12-04 18:00:00 TS 23.4200 165.180 1008 tokyo main 2707 2694 OO____________ jtwc_wp WP311991 23.9000 165.100 25 -1 23.3000 165.200 2 1008 0 0 0 4 5
1991329N04181 1991 97 WP MM ZELDA 1991-12-04 21:00:00 TS 23.6275 165.208 main 2694 2668 _P____________ WP311991 -1 23.6275 165.208 2 1008 0 0 6 1
1991329N04181 1991 97 WP MM ZELDA 1991-12-05 00:00:00 TS 24.0000 165.200 1008 tokyo main 2668 2647 _O____________ -1 24.0000 165.200 2 1008 0 0 0 6 353
1991329N04181 1991 97 WP MM ZELDA 1991-12-05 03:00:00 TS 24.2673 165.126 main 2641 2624 _P____________ -1 24.2673 165.126 2 1008 0 0 7 0
1991329N04181 1991 97 WP MM ZELDA 1991-12-05 06:00:00 TS 24.7000 165.200 1008 tokyo main 2624 2601 _O____________ -1 24.7000 165.200 2 1008 0 0 0 13 17
1991329N04181 1991 97 WP MM ZELDA 1991-12-05 09:00:00 TS 25.5396 165.565 main 2610 2580 _P____________ -1 25.5396 165.565 2 1008 0 0 20 27
1991329N04181 1991 97 WP MM ZELDA 1991-12-05 12:00:00 TS 26.5000 166.200 1008 tokyo main 2580 2549 _O____________ -1 26.5000 166.200 2 1008 0 0 0 22 37
1991329N04181 1991 97 WP MM ZELDA 1991-12-05 15:00:00 TS 27.2498 167.012 main 2554 2527 _P____________ -1 27.2498 167.012 2 1007 0 0 22 47
1991329N04181 1991 97 WP MM ZELDA 1991-12-05 18:00:00 ET 28.0000 168.000 1006 tokyo main 2532 2511 _O____________ -1 28.0000 168.000 6 1006 0 0 0 24 48
1991329N04181 1991 97 WP MM ZELDA 1991-12-05 21:00:00 ET 28.8462 169.028 main 2513 2493 _P____________ -1 28.8462 169.028 6 1003 0 0 26 47
1991329N04181 1991 97 WP MM ZELDA 1991-12-06 00:00:00 ET 29.8000 170.200 1000 tokyo main 2493 2480 _O____________ -1 29.8000 170.200 6 1000 0 0 0 30 47
1991329N04181 1991 97 WP MM ZELDA 1991-12-06 03:00:00 ET 30.8844 171.541 main 2478 2465 _P____________ -1 30.8844 171.541 6 997 0 0 33 48
1991329N04181 1991 97 WP MM ZELDA 1991-12-06 06:00:00 ET 32.0000 173.000 994 tokyo main 2464 2427 _O____________ -1 32.0000 173.000 6 994 0 0 0 33 48
1991329N04181 1991 97 WP MM ZELDA 1991-12-06 09:00:00 ET 33.0856 174.411 main 2428 2419 _P____________ -1 33.0856 174.411 6 993 0 0 32 51
1991329N04181 1991 97 WP MM ZELDA 1991-12-06 12:00:00 ET 34.0000 176.000 992 tokyo main 2415 2283 _O____________ -1 34.0000 176.000 6 992 0 0 0 33 63
1991329N04181 1991 97 WP MM ZELDA 1991-12-06 15:00:00 ET 34.5783 178.004 main 2280 2175 _P____________ -1 34.5783 178.004 6 990 0 0 34 73
1991329N04181 1991 97 EP CP ZELDA 1991-12-06 18:00:00 ET 35.0000 180.000 988 tokyo main 2171 2085 _O____________ -1 35.0000 180.000 6 988 0 0 0 31 73
1991329N04181 1991 97 EP CP ZELDA 1991-12-06 21:00:00 ET 35.4741 181.620 main 2071 1984 _P____________ -1 35.4741 -178.380 6 988 0 0 26 68
1991329N04181 1991 97 EP CP ZELDA 1991-12-07 00:00:00 ET 36.0000 183.000 main 1981 _O____________ -1 36.0000 183.000 6 988 0 0 0 25 65

IBTrACS Databaseについて

本データベースは、米国NOAAが公開する1842年以降の世界の熱帯低気圧のベストトラックデータアーカイブInternational Best Track Archive for Climate Stewardship (IBTrACS)を、ウェブで閲覧しやすい形式に変換したものです。

最終更新日:2021-10-21